createdAt,value
2023-05-21T00:03:28.166Z,100461.88
2023-05-21T00:08:30.014Z,100468.81
2023-05-21T00:13:31.645Z,100461.63
2023-05-21T00:18:34.325Z,100452.84
2023-05-21T00:23:37.727Z,100449.34
2023-05-21T00:28:39.409Z,100448.66
2023-05-21T00:33:41.016Z,100447.63
2023-05-21T00:38:46.278Z,100438.59
2023-05-21T00:43:47.964Z,100422.41
2023-05-21T00:48:50.978Z,100418.69
2023-05-21T00:53:53.305Z,100428.66
2023-05-21T00:58:57.235Z,100418.44
2023-05-21T01:04:01.743Z,100417.34
2023-05-21T01:09:05.572Z,100427.91
2023-05-21T01:14:11.080Z,100416.97
2023-05-21T01:19:18.056Z,100417.66
2023-05-21T01:24:19.918Z,100407.91
2023-05-21T01:29:21.785Z,100404.94
2023-05-21T01:34:28.161Z,100411.94
2023-05-21T01:39:38.635Z,100395.47
2023-05-21T01:44:41.082Z,100393.50
2023-05-21T01:49:42.816Z,100391.13
2023-05-21T01:54:44.506Z,100382.72
2023-05-21T01:59:47.803Z,100381.69
2023-05-21T02:04:50.118Z,100377.56
2023-05-21T02:09:51.775Z,100375.13
2023-05-21T02:14:53.412Z,100379.09
2023-05-21T02:19:55.026Z,100382.09
2023-05-21T02:24:57.326Z,100379.47
2023-05-21T02:29:59.004Z,100377.28
2023-05-21T02:35:01.365Z,100369.16
2023-05-21T02:40:05.897Z,100374.34
2023-05-21T02:45:09.378Z,100379.94
2023-05-21T02:50:13.906Z,100373.75
2023-05-21T02:55:42.110Z,100362.66
2023-05-21T03:00:43.773Z,100369.38
2023-05-21T03:05:45.870Z,100358.31
2023-05-21T03:10:47.513Z,100358.84
2023-05-21T03:15:49.197Z,100359.50
2023-05-21T03:20:50.860Z,100362.50
2023-05-21T03:25:52.499Z,100356.28
2023-05-21T03:30:54.754Z,100361.81
2023-05-21T03:36:08.286Z,100358.13
2023-05-21T03:41:12.572Z,100361.66
2023-05-21T03:46:16.712Z,100361.66
2023-05-21T03:51:38.328Z,100364.84
2023-05-21T03:56:40.579Z,100372.75
2023-05-21T04:01:42.670Z,100366.00
2023-05-21T04:06:48.287Z,100368.84
2023-05-21T04:11:50.024Z,100369.88
2023-05-21T04:16:51.663Z,100373.06
2023-05-21T04:21:53.306Z,100370.28
2023-05-21T04:26:56.004Z,100372.59
2023-05-21T04:31:57.901Z,100377.91
2023-05-21T04:37:00.476Z,100377.09
2023-05-21T04:42:03.272Z,100378.25
2023-05-21T04:47:05.253Z,100375.50
2023-05-21T04:52:08.282Z,100378.44
2023-05-21T04:57:09.938Z,100374.59
2023-05-21T05:02:12.294Z,100373.59
2023-05-21T05:07:15.582Z,100373.16
2023-05-21T05:12:17.213Z,100369.53
2023-05-21T05:17:18.853Z,100370.66
2023-05-21T05:22:20.658Z,100371.50
2023-05-21T05:27:22.512Z,100368.03
2023-05-21T05:32:24.852Z,100353.84
2023-05-21T05:37:26.784Z,100354.81
2023-05-21T05:42:28.624Z,100350.03
2023-05-21T05:47:31.934Z,100344.34
2023-05-21T05:52:33.855Z,100346.00
2023-05-21T05:57:36.061Z,100345.91
2023-05-21T06:02:43.353Z,100336.06
2023-05-21T06:07:45.712Z,100331.63
2023-05-21T06:12:47.433Z,100342.16
2023-05-21T06:17:50.365Z,100339.72
2023-05-21T06:22:52.130Z,100329.34
2023-05-21T06:27:53.931Z,100334.34
2023-05-21T06:33:00.373Z,100332.91
2023-05-21T06:38:03.174Z,100332.69
2023-05-21T06:43:05.544Z,100336.44
2023-05-21T06:48:36.126Z,100342.94
2023-05-21T06:53:37.848Z,100336.44
2023-05-21T06:58:39.532Z,100332.03
2023-05-21T07:03:41.265Z,100332.88
2023-05-21T07:08:43.731Z,100345.41
2023-05-21T07:13:45.426Z,100340.81
2023-05-21T07:18:47.428Z,100338.69
2023-05-21T07:23:49.307Z,100329.22
2023-05-21T07:28:51.005Z,100335.28
2023-05-21T07:33:52.889Z,100334.44
2023-05-21T07:38:59.004Z,100338.50
2023-05-21T07:44:01.684Z,100336.13
2023-05-21T07:49:03.477Z,100336.25
2023-05-21T07:54:05.592Z,100332.06
2023-05-21T07:59:11.679Z,100332.31
2023-05-21T08:04:16.578Z,100335.22
2023-05-21T08:09:19.360Z,100334.72
2023-05-21T08:14:21.517Z,100339.97
2023-05-21T08:19:23.331Z,100332.63
2023-05-21T08:24:26.441Z,100343.94
2023-05-21T08:29:28.316Z,100338.28
2023-05-21T08:34:30.048Z,100345.75
2023-05-21T08:39:46.334Z,100340.97
2023-05-21T08:44:52.309Z,100336.72
2023-05-21T08:49:55.839Z,100341.22
2023-05-21T08:54:58.042Z,100343.72
2023-05-21T09:00:00.269Z,100339.09
2023-05-21T09:05:04.217Z,100340.78
2023-05-21T09:10:14.761Z,100334.50
2023-05-21T09:15:17.580Z,100333.25
2023-05-21T09:20:26.449Z,100333.56
2023-05-21T09:25:33.291Z,100333.06
2023-05-21T09:30:45.633Z,100325.19
2023-05-21T09:35:47.663Z,100328.00
2023-05-21T09:40:50.862Z,100336.34
2023-05-21T09:45:54.665Z,100322.25
2023-05-21T09:51:17.345Z,100321.19
2023-05-21T09:56:23.626Z,100321.34
2023-05-21T10:01:26.340Z,100327.56
2023-05-21T10:06:31.039Z,100320.91
2023-05-21T10:11:33.803Z,100319.41
2023-05-21T10:16:36.641Z,100321.00
2023-05-21T10:21:39.876Z,100320.22
2023-05-21T10:26:41.801Z,100327.16
2023-05-21T10:31:46.576Z,100321.72
2023-05-21T10:36:49.370Z,100327.47
2023-05-21T10:42:08.971Z,100313.69
2023-05-21T10:47:16.686Z,100312.09
2023-05-21T10:52:39.953Z,100309.13
2023-05-21T10:58:32.547Z,100310.47
2023-05-21T11:03:37.436Z,100303.56
2023-05-21T11:08:47.542Z,100297.41
2023-05-21T11:13:49.730Z,100289.06
2023-05-21T11:18:51.452Z,100289.03
2023-05-21T11:24:06.627Z,100294.72
2023-05-21T11:29:10.733Z,100283.56
2023-05-21T11:34:28.452Z,100284.94
2023-05-21T11:39:30.214Z,100283.72
2023-05-21T11:44:45.649Z,100267.09
2023-05-21T11:49:48.055Z,100293.97
2023-05-21T11:54:57.327Z,100287.06
2023-05-21T12:00:01.446Z,100269.00
2023-05-21T12:05:03.914Z,100277.22
2023-05-21T12:10:06.718Z,100279.69
2023-05-21T12:15:10.206Z,100275.78
2023-05-21T12:20:15.288Z,100279.69
2023-05-21T12:25:23.082Z,100273.88
2023-05-21T12:30:25.645Z,100283.03
2023-05-21T12:35:27.495Z,100281.00
2023-05-21T12:40:39.564Z,100267.69
2023-05-21T12:45:43.544Z,100284.78
2023-05-21T12:50:45.488Z,100264.13
2023-05-21T12:55:47.237Z,100253.28
2023-05-21T13:00:48.959Z,100259.97
2023-05-21T13:06:01.344Z,100249.59
2023-05-21T13:11:03.879Z,100246.47
2023-05-21T13:16:05.780Z,100253.91
2023-05-21T13:21:07.487Z,100246.28
2023-05-21T13:26:09.842Z,100241.97
2023-05-21T13:31:12.264Z,100238.09
2023-05-21T13:36:14.014Z,100235.53
2023-05-21T13:41:15.748Z,100229.81
2023-05-21T13:46:17.489Z,100234.50
2023-05-21T13:51:37.027Z,100221.97
2023-05-21T13:56:40.173Z,100224.31
2023-05-21T14:01:41.962Z,100227.34
2023-05-21T14:06:43.614Z,100228.19
2023-05-21T14:11:45.575Z,100222.72
2023-05-21T14:16:47.427Z,100223.56
2023-05-21T14:21:51.965Z,100215.44
2023-05-21T14:26:53.623Z,100219.75
2023-05-21T14:31:55.372Z,100207.97
2023-05-21T14:36:57.051Z,100211.53
2023-05-21T14:41:58.730Z,100212.84
2023-05-21T14:47:00.367Z,100208.47
2023-05-21T14:52:02.128Z,100209.44
2023-05-21T14:57:04.370Z,100209.53
2023-05-21T15:02:06.058Z,100211.78
2023-05-21T15:07:07.791Z,100202.59
2023-05-21T15:12:09.422Z,100207.41
2023-05-21T15:17:11.107Z,100205.25
2023-05-21T15:22:12.694Z,100205.75
2023-05-21T15:27:14.411Z,100201.78
2023-05-21T15:32:16.075Z,100196.44
2023-05-21T15:37:18.465Z,100202.28
2023-05-21T15:42:20.140Z,100188.97
2023-05-21T15:47:22.193Z,100182.00
2023-05-21T15:52:23.973Z,100179.63
2023-05-21T15:57:25.635Z,100177.97
2023-05-21T16:02:27.603Z,100172.88
2023-05-21T16:07:30.194Z,100178.34
2023-05-21T16:12:31.904Z,100176.84
2023-05-21T16:17:33.580Z,100175.78
2023-05-21T16:22:35.265Z,100175.19
2023-05-21T16:27:36.965Z,100168.03
2023-05-21T16:32:39.560Z,100166.88
2023-05-21T16:37:41.245Z,100170.22
2023-05-21T16:42:43.480Z,100175.31
2023-05-21T16:47:45.362Z,100170.66
2023-05-21T16:52:47.072Z,100176.28
2023-05-21T16:57:48.809Z,100187.13
2023-05-21T17:02:50.863Z,100176.63
2023-05-21T17:07:52.699Z,100170.72
2023-05-21T17:12:54.369Z,100169.06
2023-05-21T17:17:56.046Z,100161.69
2023-05-21T17:22:57.786Z,100170.25
2023-05-21T17:28:02.299Z,100167.91
2023-05-21T17:33:04.113Z,100177.59
2023-05-21T17:38:05.884Z,100175.34
2023-05-21T17:43:07.688Z,100171.66
2023-05-21T17:48:09.442Z,100174.97
2023-05-21T17:53:12.930Z,100182.69
2023-05-21T17:58:14.648Z,100176.25
2023-05-21T18:03:17.370Z,100189.66
2023-05-21T18:08:19.041Z,100194.63
2023-05-21T18:13:20.665Z,100201.47
2023-05-21T18:18:23.012Z,100200.34
2023-05-21T18:23:24.861Z,100206.13
2023-05-21T18:28:29.251Z,100205.75
2023-05-21T18:33:31.256Z,100205.72
2023-05-21T18:38:33.721Z,100204.38
2023-05-21T18:43:35.628Z,100204.06
2023-05-21T18:48:37.398Z,100202.09
2023-05-21T18:53:39.217Z,100204.53
2023-05-21T18:58:40.943Z,100201.50
2023-05-21T19:03:42.658Z,100213.47
2023-05-21T19:08:46.226Z,100216.03
2023-05-21T19:13:48.205Z,100211.25
2023-05-21T19:18:49.983Z,100213.44
2023-05-21T19:23:53.773Z,100215.16
2023-05-21T19:28:56.718Z,100216.91
2023-05-21T19:33:58.476Z,100213.41
2023-05-21T19:39:00.770Z,100219.53
2023-05-21T19:44:02.441Z,100225.03
2023-05-21T19:49:04.153Z,100220.84
2023-05-21T19:54:05.931Z,100226.38
2023-05-21T19:59:07.742Z,100217.22
2023-05-21T20:04:10.304Z,100231.50
2023-05-21T20:09:13.294Z,100229.81
2023-05-21T20:14:15.623Z,100223.38
2023-05-21T20:19:17.623Z,100228.44
2023-05-21T20:24:19.566Z,100219.47
2023-05-21T20:29:21.375Z,100214.03
2023-05-21T20:34:23.090Z,100227.09
2023-05-21T20:39:27.331Z,100228.97
2023-05-21T20:44:29.323Z,100228.38
2023-05-21T20:49:33.164Z,100232.38
2023-05-21T20:54:35.434Z,100218.78
2023-05-21T20:59:37.153Z,100218.03
2023-05-21T21:04:39.744Z,100216.56
2023-05-21T21:09:41.419Z,100226.84
2023-05-21T21:14:43.080Z,100233.97
2023-05-21T21:19:44.691Z,100225.25
2023-05-21T21:24:47.300Z,100223.41
2023-05-21T21:29:49.034Z,100229.50
2023-05-21T21:34:50.903Z,100227.03
2023-05-21T21:39:53.459Z,100235.19
2023-05-21T21:44:55.111Z,100225.81
2023-05-21T21:49:57.045Z,100228.34
2023-05-21T21:54:58.649Z,100231.50
2023-05-21T22:00:00.820Z,100227.94
2023-05-21T22:05:02.796Z,100221.88
2023-05-21T22:10:05.632Z,100225.69
2023-05-21T22:15:08.549Z,100226.34
2023-05-21T22:20:11.369Z,100232.19
2023-05-21T22:25:13.162Z,100225.94
2023-05-21T22:30:14.835Z,100218.66
2023-05-21T22:35:16.693Z,100224.50
2023-05-21T22:40:18.609Z,100222.19
2023-05-21T22:45:21.821Z,100224.28
2023-05-21T22:50:25.214Z,100220.50
2023-05-21T22:55:26.947Z,100218.84
2023-05-21T23:00:29.155Z,100221.75
2023-05-21T23:05:31.006Z,100213.41
2023-05-21T23:10:32.669Z,100220.09
2023-05-21T23:15:34.308Z,100213.59
2023-05-21T23:20:36.659Z,100221.56
2023-05-21T23:25:38.642Z,100212.56
2023-05-21T23:30:40.628Z,100207.34
2023-05-21T23:35:42.524Z,100215.91
2023-05-21T23:40:44.104Z,100216.72
2023-05-21T23:45:45.929Z,100215.88
2023-05-21T23:50:47.712Z,100215.03
2023-05-21T23:55:49.365Z,100214.19
